sensor_id;sensor_type;location;lat;lon;timestamp;P1;durP1;ratioP1;P2;durP2;ratioP2
76098;SDS011;64828;49.956;8.636;2024-03-02T00:00:24;8.60;;;6.37;;
76098;SDS011;64828;49.956;8.636;2024-03-02T00:00:40;8.90;;;6.30;;
76098;SDS011;64828;49.956;8.636;2024-03-02T00:00:56;9.77;;;6.53;;
76098;SDS011;64828;49.956;8.636;2024-03-02T00:01:11;10.10;;;6.50;;
76098;SDS011;64828;49.956;8.636;2024-03-02T00:01:27;10.02;;;6.32;;
76098;SDS011;64828;49.956;8.636;2024-03-02T00:01:43;9.65;;;6.40;;
76098;SDS011;64828;49.956;8.636;2024-03-02T00:01:59;10.07;;;6.65;;
76098;SDS011;64828;49.956;8.636;2024-03-02T00:02:14;11.03;;;7.07;;
76098;SDS011;64828;49.956;8.636;2024-03-02T00:02:30;10.48;;;7.03;;
76098;SDS011;64828;49.956;8.636;2024-03-02T00:02:46;9.93;;;6.90;;
76098;SDS011;64828;49.956;8.636;2024-03-02T00:03:04;10.13;;;7.03;;
76098;SDS011;64828;49.956;8.636;2024-03-02T00:03:21;10.77;;;7.05;;
76098;SDS011;64828;49.956;8.636;2024-03-02T00:03:37;10.38;;;6.97;;
76098;SDS011;64828;49.956;8.636;2024-03-02T00:03:53;10.63;;;6.72;;
76098;SDS011;64828;49.956;8.636;2024-03-02T00:04:09;10.32;;;6.75;;
76098;SDS011;64828;49.956;8.636;2024-03-02T00:04:24;10.47;;;6.87;;
76098;SDS011;64828;49.956;8.636;2024-03-02T00:04:40;10.77;;;6.82;;
76098;SDS011;64828;49.956;8.636;2024-03-02T00:04:59;10.45;;;7.05;;
76098;SDS011;64828;49.956;8.636;2024-03-02T00:05:16;10.38;;;7.22;;
76098;SDS011;64828;49.956;8.636;2024-03-02T00:05:32;10.20;;;7.35;;
76098;SDS011;64828;49.956;8.636;2024-03-02T00:05:48;11.68;;;7.45;;
76098;SDS011;64828;49.956;8.636;2024-03-02T00:06:06;11.40;;;7.28;;
76098;SDS011;64828;49.956;8.636;2024-03-02T00:06:22;10.32;;;7.15;;
76098;SDS011;64828;49.956;8.636;2024-03-02T00:06:38;11.73;;;7.45;;
76098;SDS011;64828;49.956;8.636;2024-03-02T00:06:53;12.30;;;7.60;;
76098;SDS011;64828;49.956;8.636;2024-03-02T00:07:13;12.68;;;7.13;;
76098;SDS011;64828;49.956;8.636;2024-03-02T00:07:29;11.55;;;7.25;;
76098;SDS011;64828;49.956;8.636;2024-03-02T00:08:10;13.52;;;7.50;;
76098;SDS011;64828;49.956;8.636;2024-03-02T00:08:29;11.20;;;7.70;;
76098;SDS011;64828;49.956;8.636;2024-03-02T00:08:45;11.30;;;7.72;;
76098;SDS011;64828;49.956;8.636;2024-03-02T00:09:00;11.20;;;7.80;;
76098;SDS011;64828;49.956;8.636;2024-03-02T00:09:16;10.25;;;7.40;;
76098;SDS011;64828;49.956;8.636;2024-03-02T00:09:32;10.35;;;7.25;;
76098;SDS011;64828;49.956;8.636;2024-03-02T00:09:48;11.35;;;7.60;;
76098;SDS011;64828;49.956;8.636;2024-03-02T00:10:09;12.57;;;8.10;;
76098;SDS011;64828;49.956;8.636;2024-03-02T00:10:36;12.38;;;8.00;;
76098;SDS011;64828;49.956;8.636;2024-03-02T00:10:57;12.70;;;7.80;;
76098;SDS011;64828;49.956;8.636;2024-03-02T00:11:14;12.68;;;8.02;;
76098;SDS011;64828;49.956;8.636;2024-03-02T00:11:33;12.02;;;8.30;;
76098;SDS011;64828;49.956;8.636;2024-03-02T00:11:51;11.95;;;8.40;;
76098;SDS011;64828;49.956;8.636;2024-03-02T00:12:07;11.87;;;7.93;;
76098;SDS011;64828;49.956;8.636;2024-03-02T00:12:22;12.38;;;7.95;;
76098;SDS011;64828;49.956;8.636;2024-03-02T00:12:39;11.50;;;7.72;;
76098;SDS011;64828;49.956;8.636;2024-03-02T00:12:55;11.32;;;8.07;;
76098;SDS011;64828;49.956;8.636;2024-03-02T00:13:14;11.52;;;7.93;;
76098;SDS011;64828;49.956;8.636;2024-03-02T00:13:29;11.83;;;7.70;;
76098;SDS011;64828;49.956;8.636;2024-03-02T00:13:47;11.55;;;7.70;;
76098;SDS011;64828;49.956;8.636;2024-03-02T00:14:02;11.40;;;8.00;;
76098;SDS011;64828;49.956;8.636;2024-03-02T00:14:18;12.07;;;8.05;;
76098;SDS011;64828;49.956;8.636;2024-03-02T00:14:34;11.75;;;7.60;;
76098;SDS011;64828;49.956;8.636;2024-03-02T00:14:50;12.63;;;7.65;;
76098;SDS011;64828;49.956;8.636;2024-03-02T00:15:06;12.75;;;7.70;;
76098;SDS011;64828;49.956;8.636;2024-03-02T00:16:07;11.02;;;8.00;;
76098;SDS011;64828;49.956;8.636;2024-03-02T00:16:23;12.85;;;8.20;;
76098;SDS011;64828;49.956;8.636;2024-03-02T00:16:39;12.45;;;7.93;;
76098;SDS011;64828;49.956;8.636;2024-03-02T00:16:55;11.23;;;7.43;;
76098;SDS011;64828;49.956;8.636;2024-03-02T00:17:15;11.45;;;7.63;;
76098;SDS011;64828;49.956;8.636;2024-03-02T00:17:43;11.82;;;7.70;;
76098;SDS011;64828;49.956;8.636;2024-03-02T00:17:59;12.48;;;7.90;;
76098;SDS011;64828;49.956;8.636;2024-03-02T00:18:16;12.15;;;7.80;;
76098;SDS011;64828;49.956;8.636;2024-03-02T00:18:52;11.30;;;8.18;;
76098;SDS011;64828;49.956;8.636;2024-03-02T00:19:07;11.87;;;8.00;;
76098;SDS011;64828;49.956;8.636;2024-03-02T00:19:25;12.27;;;7.82;;
76098;SDS011;64828;49.956;8.636;2024-03-02T00:19:40;12.27;;;8.02;;
76098;SDS011;64828;49.956;8.636;2024-03-02T00:19:56;11.98;;;8.30;;
76098;SDS011;64828;49.956;8.636;2024-03-02T00:20:11;13.63;;;8.67;;
76098;SDS011;64828;49.956;8.636;2024-03-02T00:20:37;12.75;;;8.40;;
76098;SDS011;64828;49.956;8.636;2024-03-02T00:20:55;13.20;;;8.50;;
76098;SDS011;64828;49.956;8.636;2024-03-02T00:21:12;14.15;;;8.65;;
76098;SDS011;64828;49.956;8.636;2024-03-02T00:21:29;14.13;;;8.57;;
76098;SDS011;64828;49.956;8.636;2024-03-02T00:21:46;13.23;;;8.38;;
76098;SDS011;64828;49.956;8.636;2024-03-02T00:22:02;12.77;;;8.00;;
76098;SDS011;64828;49.956;8.636;2024-03-02T00:22:18;13.93;;;8.05;;
76098;SDS011;64828;49.956;8.636;2024-03-02T00:22:35;13.75;;;8.02;;
76098;SDS011;64828;49.956;8.636;2024-03-02T00:22:55;12.45;;;8.07;;
76098;SDS011;64828;49.956;8.636;2024-03-02T00:23:21;13.05;;;8.20;;
76098;SDS011;64828;49.956;8.636;2024-03-02T00:23:37;13.60;;;8.27;;
76098;SDS011;64828;49.956;8.636;2024-03-02T00:23:53;15.40;;;8.85;;
76098;SDS011;64828;49.956;8.636;2024-03-02T00:24:17;14.88;;;8.82;;
76098;SDS011;64828;49.956;8.636;2024-03-02T00:24:46;14.60;;;8.32;;
76098;SDS011;64828;49.956;8.636;2024-03-02T00:25:01;14.70;;;8.43;;
76098;SDS011;64828;49.956;8.636;2024-03-02T00:25:18;13.57;;;8.80;;
76098;SDS011;64828;49.956;8.636;2024-03-02T00:25:40;13.47;;;8.80;;
76098;SDS011;64828;49.956;8.636;2024-03-02T00:25:58;12.32;;;8.63;;
76098;SDS011;64828;49.956;8.636;2024-03-02T00:26:15;13.47;;;8.43;;
76098;SDS011;64828;49.956;8.636;2024-03-02T00:26:31;15.90;;;8.70;;
76098;SDS011;64828;49.956;8.636;2024-03-02T00:26:47;14.83;;;8.77;;
76098;SDS011;64828;49.956;8.636;2024-03-02T00:27:03;13.02;;;8.57;;
76098;SDS011;64828;49.956;8.636;2024-03-02T00:27:22;12.68;;;8.55;;
76098;SDS011;64828;49.956;8.636;2024-03-02T00:27:39;13.43;;;8.35;;
76098;SDS011;64828;49.956;8.636;2024-03-02T00:27:55;12.80;;;8.20;;
76098;SDS011;64828;49.956;8.636;2024-03-02T00:28:17;13.40;;;8.40;;
76098;SDS011;64828;49.956;8.636;2024-03-02T00:28:37;13.02;;;7.70;;
76098;SDS011;64828;49.956;8.636;2024-03-02T00:28:55;12.88;;;7.72;;
76098;SDS011;64828;49.956;8.636;2024-03-02T00:29:12;13.40;;;8.45;;
76098;SDS011;64828;49.956;8.636;2024-03-02T00:29:34;14.77;;;8.70;;
76098;SDS011;64828;49.956;8.636;2024-03-02T00:29:50;13.88;;;8.55;;
76098;SDS011;64828;49.956;8.636;2024-03-02T00:30:52;13.47;;;9.07;;
76098;SDS011;64828;49.956;8.636;2024-03-02T00:31:15;14.80;;;9.13;;
76098;SDS011;64828;49.956;8.636;2024-03-02T00:31:34;13.85;;;8.77;;
76098;SDS011;64828;49.956;8.636;2024-03-02T00:31:50;13.35;;;8.48;;
76098;SDS011;64828;49.956;8.636;2024-03-02T00:32:12;13.20;;;8.38;;
76098;SDS011;64828;49.956;8.636;2024-03-02T00:32:31;14.35;;;8.70;;
76098;SDS011;64828;49.956;8.636;2024-03-02T00:32:48;13.88;;;8.48;;
76098;SDS011;64828;49.956;8.636;2024-03-02T00:33:06;14.27;;;8.43;;
76098;SDS011;64828;49.956;8.636;2024-03-02T00:33:22;14.30;;;8.20;;
76098;SDS011;64828;49.956;8.636;2024-03-02T00:33:58;15.93;;;8.50;;
76098;SDS011;64828;49.956;8.636;2024-03-02T00:34:20;14.65;;;8.32;;
76098;SDS011;64828;49.956;8.636;2024-03-02T00:34:37;14.35;;;8.38;;
76098;SDS011;64828;49.956;8.636;2024-03-02T00:34:53;14.02;;;8.65;;
76098;SDS011;64828;49.956;8.636;2024-03-02T00:35:08;12.83;;;8.53;;
76098;SDS011;64828;49.956;8.636;2024-03-02T00:35:25;12.50;;;8.10;;
76098;SDS011;64828;49.956;8.636;2024-03-02T00:35:43;12.65;;;8.32;;
76098;SDS011;64828;49.956;8.636;2024-03-02T00:36:00;14.07;;;9.20;;
76098;SDS011;64828;49.956;8.636;2024-03-02T00:36:22;13.13;;;9.18;;
76098;SDS011;64828;49.956;8.636;2024-03-02T00:36:41;12.60;;;8.52;;
76098;SDS011;64828;49.956;8.636;2024-03-02T00:36:57;13.75;;;8.48;;
76098;SDS011;64828;49.956;8.636;2024-03-02T00:37:14;13.30;;;8.88;;
76098;SDS011;64828;49.956;8.636;2024-03-02T00:37:30;14.43;;;9.18;;
76098;SDS011;64828;49.956;8.636;2024-03-02T00:37:46;15.35;;;9.18;;
76098;SDS011;64828;49.956;8.636;2024-03-02T00:38:04;15.53;;;8.87;;
76098;SDS011;64828;49.956;8.636;2024-03-02T00:38:21;15.85;;;9.52;;
76098;SDS011;64828;49.956;8.636;2024-03-02T00:38:50;14.63;;;9.85;;
76098;SDS011;64828;49.956;8.636;2024-03-02T00:39:09;16.10;;;9.85;;
76098;SDS011;64828;49.956;8.636;2024-03-02T00:39:30;14.85;;;9.88;;
76098;SDS011;64828;49.956;8.636;2024-03-02T00:39:48;15.20;;;9.50;;
76098;SDS011;64828;49.956;8.636;2024-03-02T00:40:04;14.73;;;9.65;;
76098;SDS011;64828;49.956;8.636;2024-03-02T00:40:22;15.90;;;9.88;;
76098;SDS011;64828;49.956;8.636;2024-03-02T00:40:44;16.30;;;10.35;;
76098;SDS011;64828;49.956;8.636;2024-03-02T00:41:04;20.65;;;11.18;;
76098;SDS011;64828;49.956;8.636;2024-03-02T00:41:27;19.02;;;10.70;;
76098;SDS011;64828;49.956;8.636;2024-03-02T00:41:45;18.02;;;10.40;;
76098;SDS011;64828;49.956;8.636;2024-03-02T00:42:01;17.98;;;10.45;;
76098;SDS011;64828;49.956;8.636;2024-03-02T00:42:17;18.52;;;10.23;;
76098;SDS011;64828;49.956;8.636;2024-03-02T00:42:32;21.23;;;10.50;;
76098;SDS011;64828;49.956;8.636;2024-03-02T00:42:48;19.88;;;10.60;;
76098;SDS011;64828;49.956;8.636;2024-03-02T00:43:04;18.33;;;10.38;;
76098;SDS011;64828;49.956;8.636;2024-03-02T00:44:12;21.05;;;10.90;;
76098;SDS011;64828;49.956;8.636;2024-03-02T00:44:30;20.27;;;10.95;;
76098;SDS011;64828;49.956;8.636;2024-03-02T00:44:50;20.90;;;10.90;;
76098;SDS011;64828;49.956;8.636;2024-03-02T00:45:09;21.40;;;11.10;;
76098;SDS011;64828;49.956;8.636;2024-03-02T00:45:25;20.48;;;11.13;;
76098;SDS011;64828;49.956;8.636;2024-03-02T00:45:41;21.52;;;11.27;;
76098;SDS011;64828;49.956;8.636;2024-03-02T00:45:57;19.95;;;11.32;;
76098;SDS011;64828;49.956;8.636;2024-03-02T00:46:13;21.52;;;11.23;;
76098;SDS011;64828;49.956;8.636;2024-03-02T00:46:33;22.80;;;10.48;;
76098;SDS011;64828;49.956;8.636;2024-03-02T00:46:50;22.70;;;10.65;;
76098;SDS011;64828;49.956;8.636;2024-03-02T00:47:06;20.92;;;11.10;;
76098;SDS011;64828;49.956;8.636;2024-03-02T00:47:23;21.52;;;11.27;;
76098;SDS011;64828;49.956;8.636;2024-03-02T00:47:39;23.40;;;11.27;;
76098;SDS011;64828;49.956;8.636;2024-03-02T00:47:54;21.90;;;11.07;;
76098;SDS011;64828;49.956;8.636;2024-03-02T00:48:10;22.67;;;11.68;;
76098;SDS011;64828;49.956;8.636;2024-03-02T00:48:26;24.33;;;12.07;;
76098;SDS011;64828;49.956;8.636;2024-03-02T00:48:45;25.63;;;12.05;;
76098;SDS011;64828;49.956;8.636;2024-03-02T00:49:23;24.35;;;12.43;;
76098;SDS011;64828;49.956;8.636;2024-03-02T00:49:40;26.50;;;13.02;;
76098;SDS011;64828;49.956;8.636;2024-03-02T00:49:56;25.45;;;12.57;;
76098;SDS011;64828;49.956;8.636;2024-03-02T00:50:12;25.98;;;12.45;;
76098;SDS011;64828;49.956;8.636;2024-03-02T00:50:29;27.13;;;12.20;;
76098;SDS011;64828;49.956;8.636;2024-03-02T00:50:44;25.70;;;12.13;;
76098;SDS011;64828;49.956;8.636;2024-03-02T00:51:02;24.95;;;11.98;;
76098;SDS011;64828;49.956;8.636;2024-03-02T00:51:19;26.48;;;12.25;;
76098;SDS011;64828;49.956;8.636;2024-03-02T00:51:37;25.65;;;13.00;;
76098;SDS011;64828;49.956;8.636;2024-03-02T00:51:54;27.05;;;13.02;;
76098;SDS011;64828;49.956;8.636;2024-03-02T00:52:10;30.30;;;13.48;;
76098;SDS011;64828;49.956;8.636;2024-03-02T00:52:26;27.63;;;13.32;;
76098;SDS011;64828;49.956;8.636;2024-03-02T00:52:42;27.67;;;13.10;;
76098;SDS011;64828;49.956;8.636;2024-03-02T00:52:58;28.45;;;13.40;;
76098;SDS011;64828;49.956;8.636;2024-03-02T00:53:15;27.70;;;13.50;;
76098;SDS011;64828;49.956;8.636;2024-03-02T00:53:37;28.77;;;13.60;;
76098;SDS011;64828;49.956;8.636;2024-03-02T00:53:53;30.58;;;13.68;;
76098;SDS011;64828;49.956;8.636;2024-03-02T00:54:15;30.33;;;13.32;;
76098;SDS011;64828;49.956;8.636;2024-03-02T00:54:40;30.77;;;13.20;;
76098;SDS011;64828;49.956;8.636;2024-03-02T00:54:57;28.77;;;13.07;;
76098;SDS011;64828;49.956;8.636;2024-03-02T00:55:12;29.52;;;12.93;;
76098;SDS011;64828;49.956;8.636;2024-03-02T00:55:29;28.02;;;12.48;;
76098;SDS011;64828;49.956;8.636;2024-03-02T00:55:44;28.73;;;12.77;;
76098;SDS011;64828;49.956;8.636;2024-03-02T00:56:03;30.63;;;13.60;;
76098;SDS011;64828;49.956;8.636;2024-03-02T00:56:24;33.25;;;13.85;;
76098;SDS011;64828;49.956;8.636;2024-03-02T00:56:41;31.13;;;13.73;;
76098;SDS011;64828;49.956;8.636;2024-03-02T00:56:57;30.30;;;13.68;;
76098;SDS011;64828;49.956;8.636;2024-03-02T00:57:13;32.35;;;13.82;;
76098;SDS011;64828;49.956;8.636;2024-03-02T00:57:30;33.72;;;13.60;;
76098;SDS011;64828;49.956;8.636;2024-03-02T00:57:49;32.25;;;13.38;;
76098;SDS011;64828;49.956;8.636;2024-03-02T00:58:05;32.65;;;13.52;;
76098;SDS011;64828;49.956;8.636;2024-03-02T00:58:20;34.47;;;14.27;;
76098;SDS011;64828;49.956;8.636;2024-03-02T00:58:36;31.75;;;14.23;;
76098;SDS011;64828;49.956;8.636;2024-03-02T00:58:52;32.77;;;14.00;;
76098;SDS011;64828;49.956;8.636;2024-03-02T00:59:08;36.80;;;14.15;;
76098;SDS011;64828;49.956;8.636;2024-03-02T00:59:26;32.92;;;14.45;;
76098;SDS011;64828;49.956;8.636;2024-03-02T00:59:41;32.63;;;14.33;;
76098;SDS011;64828;49.956;8.636;2024-03-02T00:59:57;33.13;;;14.00;;
76098;SDS011;64828;49.956;8.636;2024-03-02T01:00:12;31.67;;;13.97;;
76098;SDS011;64828;49.956;8.636;2024-03-02T01:00:30;31.60;;;14.18;;
76098;SDS011;64828;49.956;8.636;2024-03-02T01:00:45;32.20;;;14.07;;
76098;SDS011;64828;49.956;8.636;2024-03-02T01:01:01;31.92;;;13.85;;
76098;SDS011;64828;49.956;8.636;2024-03-02T01:01:17;32.63;;;13.50;;
76098;SDS011;64828;49.956;8.636;2024-03-02T01:01:34;30.95;;;13.73;;
76098;SDS011;64828;49.956;8.636;2024-03-02T01:01:50;30.50;;;14.18;;
76098;SDS011;64828;49.956;8.636;2024-03-02T01:02:06;30.95;;;14.30;;
76098;SDS011;64828;49.956;8.636;2024-03-02T01:02:21;30.83;;;14.10;;
76098;SDS011;64828;49.956;8.636;2024-03-02T01:02:37;31.38;;;14.25;;
76098;SDS011;64828;49.956;8.636;2024-03-02T01:02:52;32.67;;;14.52;;
76098;SDS011;64828;49.956;8.636;2024-03-02T01:03:08;30.53;;;13.90;;
76098;SDS011;64828;49.956;8.636;2024-03-02T01:03:25;28.73;;;13.25;;
76098;SDS011;64828;49.956;8.636;2024-03-02T01:03:41;29.98;;;13.57;;
76098;SDS011;64828;49.956;8.636;2024-03-02T01:03:57;31.88;;;14.23;;
76098;SDS011;64828;49.956;8.636;2024-03-02T01:04:13;31.05;;;13.80;;
76098;SDS011;64828;49.956;8.636;2024-03-02T01:04:29;28.10;;;13.32;;
76098;SDS011;64828;49.956;8.636;2024-03-02T01:04:44;28.77;;;13.50;;
76098;SDS011;64828;49.956;8.636;2024-03-02T01:05:00;28.52;;;12.85;;
76098;SDS011;64828;49.956;8.636;2024-03-02T01:05:16;28.60;;;12.90;;
76098;SDS011;64828;49.956;8.636;2024-03-02T01:05:31;28.93;;;13.23;;
76098;SDS011;64828;49.956;8.636;2024-03-02T01:05:47;27.20;;;12.65;;
76098;SDS011;64828;49.956;8.636;2024-03-02T01:06:02;22.70;;;11.07;;
76098;SDS011;64828;49.956;8.636;2024-03-02T01:06:19;17.80;;;9.82;;
76098;SDS011;64828;49.956;8.636;2024-03-02T01:06:35;16.67;;;10.30;;
76098;SDS011;64828;49.956;8.636;2024-03-02T01:06:51;18.02;;;10.77;;
76098;SDS011;64828;49.956;8.636;2024-03-02T01:07:06;18.97;;;10.73;;
76098;SDS011;64828;49.956;8.636;2024-03-02T01:07:22;18.08;;;10.40;;
76098;SDS011;64828;49.956;8.636;2024-03-02T01:07:38;18.35;;;10.23;;
76098;SDS011;64828;49.956;8.636;2024-03-02T01:07:54;17.92;;;10.38;;
76098;SDS011;64828;49.956;8.636;2024-03-02T01:08:10;17.30;;;10.57;;
76098;SDS011;64828;49.956;8.636;2024-03-02T01:08:25;19.77;;;10.55;;
76098;SDS011;64828;49.956;8.636;2024-03-02T01:08:41;20.30;;;10.83;;
76098;SDS011;64828;49.956;8.636;2024-03-02T01:08:57;19.27;;;10.73;;
76098;SDS011;64828;49.956;8.636;2024-03-02T01:09:13;18.77;;;10.07;;
76098;SDS011;64828;49.956;8.636;2024-03-02T01:09:29;18.83;;;9.98;;
76098;SDS011;64828;49.956;8.636;2024-03-02T01:09:44;20.07;;;10.30;;
76098;SDS011;64828;49.956;8.636;2024-03-02T01:10:00;19.15;;;10.43;;
76098;SDS011;64828;49.956;8.636;2024-03-02T01:10:15;17.27;;;9.63;;
76098;SDS011;64828;49.956;8.636;2024-03-02T01:10:31;16.65;;;9.10;;
76098;SDS011;64828;49.956;8.636;2024-03-02T01:10:47;16.52;;;9.45;;
76098;SDS011;64828;49.956;8.636;2024-03-02T01:11:03;16.97;;;9.57;;
76098;SDS011;64828;49.956;8.636;2024-03-02T01:11:19;17.75;;;9.35;;
76098;SDS011;64828;49.956;8.636;2024-03-02T01:11:38;17.35;;;9.95;;
76098;SDS011;64828;49.956;8.636;2024-03-02T01:11:54;16.95;;;10.00;;
76098;SDS011;64828;49.956;8.636;2024-03-02T01:12:10;17.60;;;10.00;;
76098;SDS011;64828;49.956;8.636;2024-03-02T01:12:25;16.47;;;9.97;;
76098;SDS011;64828;49.956;8.636;2024-03-02T01:12:41;16.20;;;9.70;;
76098;SDS011;64828;49.956;8.636;2024-03-02T01:12:56;16.73;;;9.50;;
76098;SDS011;64828;49.956;8.636;2024-03-02T01:13:12;16.13;;;9.38;;
76098;SDS011;64828;49.956;8.636;2024-03-02T01:13:28;15.55;;;9.65;;
76098;SDS011;64828;49.956;8.636;2024-03-02T01:13:47;16.58;;;10.02;;
76098;SDS011;64828;49.956;8.636;2024-03-02T01:14:03;17.13;;;9.85;;
76098;SDS011;64828;49.956;8.636;2024-03-02T01:14:19;16.13;;;9.65;;
76098;SDS011;64828;49.956;8.636;2024-03-02T01:14:35;15.40;;;9.50;;
76098;SDS011;64828;49.956;8.636;2024-03-02T01:14:50;15.83;;;9.43;;
76098;SDS011;64828;49.956;8.636;2024-03-02T01:15:06;15.88;;;9.50;;
76098;SDS011;64828;49.956;8.636;2024-03-02T01:15:23;15.38;;;9.75;;
76098;SDS011;64828;49.956;8.636;2024-03-02T01:15:38;13.73;;;9.30;;
76098;SDS011;64828;49.956;8.636;2024-03-02T01:15:54;14.23;;;9.38;;
76098;SDS011;64828;49.956;8.636;2024-03-02T01:16:10;16.13;;;9.70;;
76098;SDS011;64828;49.956;8.636;2024-03-02T01:16:25;17.23;;;10.10;;
76098;SDS011;64828;49.956;8.636;2024-03-02T01:16:41;16.23;;;10.02;;
76098;SDS011;64828;49.956;8.636;2024-03-02T01:16:57;16.52;;;10.02;;
76098;SDS011;64828;49.956;8.636;2024-03-02T01:17:13;17.33;;;10.23;;
76098;SDS011;64828;49.956;8.636;2024-03-02T01:17:28;16.00;;;9.70;;
76098;SDS011;64828;49.956;8.636;2024-03-02T01:17:44;17.48;;;9.82;;
76098;SDS011;64828;49.956;8.636;2024-03-02T01:18:00;17.98;;;10.13;;
76098;SDS011;64828;49.956;8.636;2024-03-02T01:18:15;16.83;;;10.37;;
76098;SDS011;64828;49.956;8.636;2024-03-02T01:18:31;17.27;;;10.50;;
76098;SDS011;64828;49.956;8.636;2024-03-02T01:18:47;17.73;;;10.32;;
76098;SDS011;64828;49.956;8.636;2024-03-02T01:19:02;17.40;;;10.23;;
76098;SDS011;64828;49.956;8.636;2024-03-02T01:19:18;18.67;;;10.07;;
76098;SDS011;64828;49.956;8.636;2024-03-02T01:19:34;19.63;;;10.18;;
76098;SDS011;64828;49.956;8.636;2024-03-02T01:19:50;17.65;;;10.25;;
76098;SDS011;64828;49.956;8.636;2024-03-02T01:20:07;17.47;;;10.30;;
76098;SDS011;64828;49.956;8.636;2024-03-02T01:20:24;17.20;;;10.10;;
76098;SDS011;64828;49.956;8.636;2024-03-02T01:20:40;17.20;;;10.00;;
76098;SDS011;64828;49.956;8.636;2024-03-02T01:20:55;17.57;;;10.17;;
76098;SDS011;64828;49.956;8.636;2024-03-02T01:21:11;18.37;;;9.80;;
76098;SDS011;64828;49.956;8.636;2024-03-02T01:21:27;18.58;;;10.15;;
76098;SDS011;64828;49.956;8.636;2024-03-02T01:21:43;16.80;;;10.40;;
76098;SDS011;64828;49.956;8.636;2024-03-02T01:21:58;16.70;;;10.40;;
76098;SDS011;64828;49.956;8.636;2024-03-02T01:22:14;16.52;;;10.40;;
76098;SDS011;64828;49.956;8.636;2024-03-02T01:22:30;17.05;;;9.80;;
76098;SDS011;64828;49.956;8.636;2024-03-02T01:22:45;17.40;;;9.83;;
76098;SDS011;64828;49.956;8.636;2024-03-02T01:23:02;17.23;;;9.93;;
76098;SDS011;64828;49.956;8.636;2024-03-02T01:23:18;16.50;;;9.80;;
76098;SDS011;64828;49.956;8.636;2024-03-02T01:23:34;16.67;;;10.02;;
76098;SDS011;64828;49.956;8.636;2024-03-02T01:23:50;16.17;;;10.18;;
76098;SDS011;64828;49.956;8.636;2024-03-02T01:24:05;17.13;;;9.93;;
76098;SDS011;64828;49.956;8.636;2024-03-02T01:24:21;16.73;;;9.50;;
76098;SDS011;64828;49.956;8.636;2024-03-02T01:24:37;14.77;;;9.52;;
76098;SDS011;64828;49.956;8.636;2024-03-02T01:24:52;14.37;;;9.67;;
76098;SDS011;64828;49.956;8.636;2024-03-02T01:25:08;15.20;;;9.82;;
76098;SDS011;64828;49.956;8.636;2024-03-02T01:25:24;16.55;;;10.48;;
76098;SDS011;64828;49.956;8.636;2024-03-02T01:25:40;17.52;;;10.43;;
76098;SDS011;64828;49.956;8.636;2024-03-02T01:25:55;16.93;;;9.80;;
76098;SDS011;64828;49.956;8.636;2024-03-02T01:26:11;16.45;;;9.68;;
76098;SDS011;64828;49.956;8.636;2024-03-02T01:26:26;18.50;;;10.10;;
76098;SDS011;64828;49.956;8.636;2024-03-02T01:26:42;20.17;;;10.43;;
76098;SDS011;64828;49.956;8.636;2024-03-02T01:26:58;19.63;;;10.30;;
76098;SDS011;64828;49.956;8.636;2024-03-02T01:27:13;18.53;;;10.53;;
76098;SDS011;64828;49.956;8.636;2024-03-02T01:27:29;17.15;;;10.68;;
76098;SDS011;64828;49.956;8.636;2024-03-02T01:27:44;17.33;;;10.27;;
76098;SDS011;64828;49.956;8.636;2024-03-02T01:28:00;16.92;;;9.90;;
76098;SDS011;64828;49.956;8.636;2024-03-02T01:28:16;14.98;;;9.80;;
76098;SDS011;64828;49.956;8.636;2024-03-02T01:28:32;15.40;;;9.60;;
76098;SDS011;64828;49.956;8.636;2024-03-02T01:28:47;16.47;;;9.67;;
76098;SDS011;64828;49.956;8.636;2024-03-02T01:29:03;17.65;;;9.68;;
76098;SDS011;64828;49.956;8.636;2024-03-02T01:29:19;17.63;;;9.70;;
76098;SDS011;64828;49.956;8.636;2024-03-02T01:29:34;17.33;;;9.90;;
76098;SDS011;64828;49.956;8.636;2024-03-02T01:29:50;16.60;;;10.05;;
76098;SDS011;64828;49.956;8.636;2024-03-02T01:30:06;16.25;;;9.95;;
76098;SDS011;64828;49.956;8.636;2024-03-02T01:30:22;17.30;;;9.70;;
76098;SDS011;64828;49.956;8.636;2024-03-02T01:30:38;17.02;;;9.60;;
76098;SDS011;64828;49.956;8.636;2024-03-02T01:30:53;17.40;;;9.90;;
76098;SDS011;64828;49.956;8.636;2024-03-02T01:31:09;15.93;;;9.88;;
76098;SDS011;64828;49.956;8.636;2024-03-02T01:31:24;15.10;;;10.03;;
76098;SDS011;64828;49.956;8.636;2024-03-02T01:31:40;15.73;;;10.20;;
76098;SDS011;64828;49.956;8.636;2024-03-02T01:31:57;16.38;;;9.77;;
76098;SDS011;64828;49.956;8.636;2024-03-02T01:32:12;17.53;;;9.73;;
76098;SDS011;64828;49.956;8.636;2024-03-02T01:32:28;17.88;;;10.00;;
76098;SDS011;64828;49.956;8.636;2024-03-02T01:32:44;16.98;;;9.85;;
76098;SDS011;64828;49.956;8.636;2024-03-02T01:33:00;18.23;;;10.05;;
76098;SDS011;64828;49.956;8.636;2024-03-02T01:33:17;18.75;;;9.98;;
76098;SDS011;64828;49.956;8.636;2024-03-02T01:33:34;16.08;;;9.50;;
76098;SDS011;64828;49.956;8.636;2024-03-02T01:33:50;15.20;;;9.40;;
76098;SDS011;64828;49.956;8.636;2024-03-02T01:34:06;16.30;;;9.80;;
76098;SDS011;64828;49.956;8.636;2024-03-02T01:34:21;15.73;;;9.70;;
76098;SDS011;64828;49.956;8.636;2024-03-02T01:34:37;16.23;;;9.52;;
76098;SDS011;64828;49.956;8.636;2024-03-02T01:34:53;15.52;;;9.35;;
76098;SDS011;64828;49.956;8.636;2024-03-02T01:35:08;14.97;;;9.43;;
76098;SDS011;64828;49.956;8.636;2024-03-02T01:35:24;15.52;;;9.82;;
76098;SDS011;64828;49.956;8.636;2024-03-02T01:35:40;16.95;;;9.88;;
76098;SDS011;64828;49.956;8.636;2024-03-02T01:35:55;18.00;;;9.75;;
76098;SDS011;64828;49.956;8.636;2024-03-02T01:36:11;16.13;;;9.57;;
76098;SDS011;64828;49.956;8.636;2024-03-02T01:36:27;14.88;;;9.50;;
76098;SDS011;64828;49.956;8.636;2024-03-02T01:36:43;15.13;;;9.73;;
76098;SDS011;64828;49.956;8.636;2024-03-02T01:36:58;17.13;;;9.80;;
76098;SDS011;64828;49.956;8.636;2024-03-02T01:37:14;17.67;;;9.32;;
76098;SDS011;64828;49.956;8.636;2024-03-02T01:37:29;16.13;;;9.57;;
76098;SDS011;64828;49.956;8.636;2024-03-02T01:37:45;16.45;;;9.88;;
76098;SDS011;64828;49.956;8.636;2024-03-02T01:38:01;16.73;;;9.48;;
76098;SDS011;64828;49.956;8.636;2024-03-02T01:38:17;16.30;;;9.60;;
76098;SDS011;64828;49.956;8.636;2024-03-02T01:38:33;15.00;;;9.30;;
76098;SDS011;64828;49.956;8.636;2024-03-02T01:38:49;16.42;;;9.13;;
76098;SDS011;64828;49.956;8.636;2024-03-02T01:39:05;17.73;;;9.48;;
76098;SDS011;64828;49.956;8.636;2024-03-02T01:39:24;17.17;;;9.75;;
76098;SDS011;64828;49.956;8.636;2024-03-02T01:39:39;16.77;;;9.60;;
76098;SDS011;64828;49.956;8.636;2024-03-02T01:39:55;18.13;;;9.75;;
76098;SDS011;64828;49.956;8.636;2024-03-02T01:40:10;17.80;;;9.63;;
76098;SDS011;64828;49.956;8.636;2024-03-02T01:40:27;15.02;;;9.38;;
76098;SDS011;64828;49.956;8.636;2024-03-02T01:40:43;15.02;;;9.48;;
76098;SDS011;64828;49.956;8.636;2024-03-02T01:41:01;17.75;;;9.70;;
76098;SDS011;64828;49.956;8.636;2024-03-02T01:41:17;17.73;;;9.60;;
76098;SDS011;64828;49.956;8.636;2024-03-02T01:41:33;14.75;;;9.27;;
76098;SDS011;64828;49.956;8.636;2024-03-02T01:41:48;16.70;;;9.13;;
76098;SDS011;64828;49.956;8.636;2024-03-02T01:42:04;16.42;;;9.30;;
76098;SDS011;64828;49.956;8.636;2024-03-02T01:42:20;15.98;;;9.43;;
76098;SDS011;64828;49.956;8.636;2024-03-02T01:42:36;15.30;;;9.37;;
76098;SDS011;64828;49.956;8.636;2024-03-02T01:42:53;15.90;;;9.50;;